Time;durP1;ratioP1;P1;durP2;ratioP2;P2;SDS_P1;SDS_P2;PMS_P1;PMS_P2;Temp;Humidity;BMP_temperature;BMP_pressure;BME280_temperature;BME280_humidity;BME280_pressure;Samples;Min_cycle;Max_cycle;Signal;HPM_P1;HPM_P2
2023/03/24 00:00:38;;;;;;;17.02;4.97;;;;;;;10.16;100.00;99725.47;5068588;28;20379;-71
2023/03/24 00:03:03;;;;;;;18.23;5.05;;;;;;;10.04;100.00;99716.78;5073187;28;20029;-67
2023/03/24 00:05:29;;;;;;;18.65;5.40;;;;;;;10.06;100.00;99712.38;5072614;28;20020;-68
2023/03/24 00:07:55;;;;;;;19.40;5.55;;;;;;;10.04;100.00;99703.59;5072742;28;20040;-72
2023/03/24 00:10:21;;;;;;;18.35;5.20;;;;;;;10.13;100.00;99694.69;5072824;28;20036;-68
2023/03/24 00:12:47;;;;;;;17.10;5.30;;;;;;;10.14;100.00;99703.50;5072823;28;20040;-68
2023/03/24 00:15:19;;;;;;;16.95;5.43;;;;;;;10.14;100.00;99701.72;5072721;28;20052;-68
2023/03/24 00:17:48;;;;;;;16.17;5.18;;;;;;;10.20;100.00;99703.44;5069316;28;20068;-68
2023/03/24 00:20:15;;;;;;;18.27;5.55;;;;;;;10.16;100.00;99713.13;5072529;28;20032;-68
2023/03/24 00:22:49;;;;;;;17.27;5.40;;;;;;;10.19;100.00;99710.44;5072724;28;20029;-67
2023/03/24 00:25:18;;;;;;;17.02;5.20;;;;;;;10.22;100.00;99706.91;5069418;28;20373;-69
2023/03/24 00:27:44;;;;;;;16.17;4.90;;;;;;;10.29;100.00;99688.34;5072437;28;20020;-69
2023/03/24 00:30:11;;;;;;;16.13;5.00;;;;;;;10.33;100.00;99699.72;5072329;28;20101;-69
2023/03/24 00:32:37;;;;;;;16.15;4.95;;;;;;;10.40;100.00;99688.22;5072555;28;20355;-68
2023/03/24 00:35:04;;;;;;;15.32;4.68;;;;;;;10.46;100.00;99684.63;5072243;28;20479;-68
2023/03/24 00:37:30;;;;;;;15.10;4.50;;;;;;;10.57;100.00;99682.72;5072696;28;20375;-68
2023/03/24 00:39:56;;;;;;;15.52;4.40;;;;;;;10.60;100.00;99672.09;5072574;28;20025;-68
2023/03/24 00:42:23;;;;;;;15.00;4.40;;;;;;;10.72;100.00;99659.59;5070941;28;20051;-68
2023/03/24 00:44:49;;;;;;;12.88;4.15;;;;;;;10.73;100.00;99659.59;5072187;28;20037;-68
2023/03/24 00:47:16;;;;;;;13.73;4.20;;;;;;;10.79;100.00;99669.16;5072457;28;20021;-67
2023/03/24 00:49:43;;;;;;;14.48;4.20;;;;;;;10.84;100.00;99666.47;5072262;28;20494;-67
2023/03/24 00:52:19;;;;;;;13.35;3.97;;;;;;;10.93;100.00;99663.69;5068142;28;20051;-68
2023/03/24 00:54:46;;;;;;;14.40;4.10;;;;;;;10.95;100.00;99638.97;5072140;28;20089;-68
2023/03/24 00:57:13;;;;;;;14.30;4.05;;;;;;;10.98;100.00;99640.69;5076229;28;20044;-67
2023/03/24 00:59:47;;;;;;;11.98;3.85;;;;;;;10.94;100.00;99639.00;5071978;28;20107;-68
2023/03/24 01:02:23;;;;;;;12.85;3.95;;;;;;;10.80;100.00;99634.81;5072531;28;20119;-68
2023/03/24 01:04:53;;;;;;;12.45;3.95;;;;;;;10.75;100.00;99634.00;5068996;28;20020;-67
2023/03/24 01:07:20;;;;;;;15.25;4.30;;;;;;;10.74;100.00;99641.94;5076068;28;20063;-68
2023/03/24 01:09:50;;;;;;;13.23;4.13;;;;;;;10.71;100.00;99620.84;5075859;28;20054;-68
2023/03/24 01:12:17;;;;;;;13.65;3.97;;;;;;;10.72;100.00;99620.81;5076050;28;20383;-68
2023/03/24 01:14:43;;;;;;;13.70;3.92;;;;;;;10.67;100.00;99621.78;5076228;28;20413;-68
2023/03/24 01:17:09;;;;;;;14.15;4.25;;;;;;;10.65;100.00;99627.09;5075593;28;20139;-68
2023/03/24 01:19:35;;;;;;;14.98;4.30;;;;;;;10.60;100.00;99627.19;5075560;28;20043;-69
2023/03/24 01:22:01;;;;;;;11.20;3.95;;;;;;;10.63;100.00;99619.19;5075822;28;20054;-68
2023/03/24 01:24:26;;;;;;;13.98;4.15;;;;;;;10.59;100.00;99606.06;5075636;28;20107;-69
2023/03/24 01:26:52;;;;;;;14.82;4.15;;;;;;;10.58;100.00;99620.16;5075571;28;20020;-69
2023/03/24 01:29:17;;;;;;;13.90;4.07;;;;;;;10.51;100.00;99611.44;5075630;28;20032;-70
2023/03/24 01:31:42;;;;;;;15.93;4.50;;;;;;;10.55;100.00;99614.94;5075598;28;20078;-69
2023/03/24 01:34:08;;;;;;;14.52;4.50;;;;;;;10.50;100.00;99617.66;5075373;28;20056;-69
2023/03/24 01:36:33;;;;;;;16.73;4.57;;;;;;;10.48;100.00;99613.28;5075482;28;20040;-69
2023/03/24 01:39:00;;;;;;;15.10;4.45;;;;;;;10.51;100.00;99592.09;5075585;28;20050;-68
2023/03/24 01:41:34;;;;;;;15.98;4.70;;;;;;;10.46;100.00;99605.38;5075267;28;20444;-70
2023/03/24 01:43:59;;;;;;;14.82;4.60;;;;;;;10.49;100.00;99604.47;5075326;28;20028;-69
2023/03/24 01:46:28;;;;;;;16.38;4.70;;;;;;;10.46;100.00;99608.00;5075235;28;20029;-69
2023/03/24 01:49:06;;;;;;;16.75;5.00;;;;;;;10.48;100.00;99608.84;5075190;28;20039;-69
2023/03/24 01:51:36;;;;;;;16.63;5.05;;;;;;;10.48;100.00;99597.41;5075082;28;20479;-68
2023/03/24 01:54:30;;;;;;;17.63;4.85;;;;;;;10.46;100.00;99605.38;5075337;28;20090;-69
2023/03/24 01:57:02;;;;;;;15.73;4.80;;;;;;;10.48;100.00;99579.78;5065025;28;20479;-70
2023/03/24 01:59:32;;;;;;;15.30;4.72;;;;;;;10.46;100.00;99598.31;5075147;28;20033;-68
2023/03/24 02:02:01;;;;;;;16.38;5.00;;;;;;;10.46;100.00;99593.03;5074908;28;20028;-69
2023/03/24 02:04:33;;;;;;;16.00;4.72;;;;;;;10.49;100.00;99588.59;5074868;28;20466;-69
2023/03/24 02:07:09;;;;;;;16.40;5.13;;;;;;;10.51;100.00;99576.22;5074787;28;20052;-68
2023/03/24 02:09:34;;;;;;;16.90;5.20;;;;;;;10.46;100.00;99577.16;5075024;28;20100;-69
2023/03/24 02:12:01;;;;;;;16.15;5.32;;;;;;;10.45;100.00;99580.69;5074760;28;20084;-70
2023/03/24 02:14:27;;;;;;;16.48;5.07;;;;;;;10.46;100.00;99578.94;5074672;28;20032;-69
2023/03/24 02:17:22;;;;;;;17.88;5.40;;;;;;;10.45;100.00;99588.63;5074789;28;20064;-70
2023/03/24 02:20:11;;;;;;;17.92;5.60;;;;;;;10.43;100.00;99579.84;5071748;28;20032;-69
2023/03/24 02:23:04;;;;;;;16.67;5.25;;;;;;;10.48;100.00;99600.91;5074838;28;20025;-69
2023/03/24 02:25:48;;;;;;;17.50;5.60;;;;;;;10.51;100.00;99581.50;5073177;28;20189;-70
2023/03/24 02:28:32;;;;;;;17.25;5.50;;;;;;;10.53;100.00;99579.72;5070927;28;20020;-70
2023/03/24 02:31:06;;;;;;;17.25;5.60;;;;;;;10.52;100.00;99581.50;5072529;28;20060;-70
2023/03/24 02:33:44;;;;;;;17.58;5.78;;;;;;;10.49;100.00;99580.69;5074564;28;20036;-69
2023/03/24 02:36:32;;;;;;;16.88;5.60;;;;;;;10.45;100.00;99583.34;5070311;28;20035;-70
2023/03/24 02:39:28;;;;;;;17.48;5.65;;;;;;;10.52;100.00;99580.63;5068667;28;20028;-69
2023/03/24 02:42:18;;;;;;;17.40;5.70;;;;;;;10.54;100.00;99577.06;5072266;28;20037;-70
2023/03/24 02:45:06;;;;;;;17.75;5.82;;;;;;;10.44;100.00;99580.72;5070523;28;20029;-69
2023/03/24 02:47:51;;;;;;;18.20;6.00;;;;;;;10.45;100.00;99590.41;5071616;28;20376;-70
2023/03/24 02:50:30;;;;;;;17.25;5.82;;;;;;;10.42;100.00;99601.03;5070978;28;20082;-70
2023/03/24 02:53:18;;;;;;;18.35;6.10;;;;;;;10.42;100.00;99604.53;5073998;28;20032;-71
2023/03/24 02:55:48;;;;;;;16.85;6.05;;;;;;;10.48;100.00;99626.47;5070354;28;20020;-70
2023/03/24 02:58:21;;;;;;;18.27;6.10;;;;;;;10.44;100.00;99612.44;5070330;28;20028;-70
2023/03/24 03:00:51;;;;;;;16.42;5.80;;;;;;;10.48;100.00;99623.84;5069158;28;20506;-70
2023/03/24 03:03:33;;;;;;;17.33;5.93;;;;;;;10.47;100.00;99638.84;5073846;28;20029;-70
2023/03/24 03:06:05;;;;;;;19.05;6.78;;;;;;;10.46;100.00;99651.16;5073950;28;20378;-69
2023/03/24 03:08:32;;;;;;;;;;;;;;;10.41;100.00;99686.44;5073987;28;20495;-70
2023/03/24 03:11:00;;;;;;;17.50;6.10;;;;;;;10.38;100.00;99650.41;5073809;28;19912;-69
2023/03/24 03:13:38;;;;;;;16.15;5.75;;;;;;;10.27;100.00;99668.13;5073555;28;20060;-69
2023/03/24 03:16:13;;;;;;;16.63;5.60;;;;;;;10.17;100.00;99661.22;5073182;28;20052;-69
2023/03/24 03:18:50;;;;;;;14.85;4.45;;;;;;;10.06;100.00;99685.09;5072854;28;20090;-70
2023/03/24 03:21:21;;;;;;;13.10;4.32;;;;;;;9.95;100.00;99664.13;5070460;28;20412;-69
2023/03/24 03:24:06;;;;;;;11.18;3.53;;;;;;;9.69;100.00;99678.47;5073785;28;20111;-70
2023/03/24 03:26:33;;;;;;;12.27;3.70;;;;;;;9.58;100.00;99675.94;5073460;28;20016;-71
2023/03/24 03:29:15;;;;;;;12.93;3.78;;;;;;;9.44;100.00;99669.94;5073230;28;20035;-72
2023/03/24 03:31:51;;;;;;;9.73;3.60;;;;;;;9.32;100.00;99686.75;5069169;28;20356;-71
2023/03/24 03:34:29;;;;;;;12.60;3.10;;;;;;;9.43;100.00;99684.88;5069937;28;20154;-70
2023/03/24 03:37:20;;;;;;;7.03;2.70;;;;;;;9.17;100.00;99714.09;5073282;28;20033;-70
2023/03/24 03:39:52;;;;;;;10.13;2.83;;;;;;;9.14;100.00;99729.94;5069711;28;20029;-71
2023/03/24 03:42:18;;;;;;;9.07;2.70;;;;;;;9.12;100.00;99730.88;5069944;28;20095;-71
2023/03/24 03:44:43;;;;;;;9.70;2.85;;;;;;;9.16;100.00;99722.91;5073135;28;20437;-71
2023/03/24 03:47:09;;;;;;;11.13;2.83;;;;;;;9.22;100.00;99732.56;5072840;28;20025;-71
2023/03/24 03:49:35;;;;;;;10.80;2.80;;;;;;;9.09;100.00;99742.31;5073058;28;20020;-70
2023/03/24 03:52:01;;;;;;;12.55;2.90;;;;;;;9.06;100.00;99748.47;5072933;28;20024;-70
2023/03/24 03:54:29;;;;;;;18.35;5.05;;;;;;;9.01;100.00;99746.75;5072764;28;20039;-71
2023/03/24 03:56:55;;;;;;;19.65;6.72;;;;;;;8.90;100.00;99770.56;5072888;28;20068;-71
2023/03/24 03:59:32;;;;;;;20.20;6.63;;;;;;;8.79;100.00;99770.59;5072741;28;20498;-71
2023/03/24 04:02:04;;;;;;;20.00;6.50;;;;;;;8.74;100.00;99782.94;5072632;28;20032;-71
2023/03/24 04:04:44;;;;;;;20.13;6.05;;;;;;;8.62;100.00;99769.81;5072682;28;20028;-71
2023/03/24 04:07:32;;;;;;;18.02;5.38;;;;;;;8.55;100.00;99790.91;5072852;28;20108;-71
2023/03/24 04:10:16;;;;;;;17.75;4.60;;;;;;;8.44;100.00;99799.72;5070754;28;20123;-69
2023/03/24 04:13:04;;;;;;;18.80;4.70;;;;;;;8.44;100.00;99794.44;5068559;28;20025;-69
2023/03/24 04:15:41;;;;;;;19.08;4.47;;;;;;;8.43;100.00;99797.94;5071046;28;20024;-69
2023/03/24 04:18:29;;;;;;;17.20;4.45;;;;;;;8.27;100.00;99808.56;5072457;28;20052;-69
2023/03/24 04:21:19;;;;;;;20.08;4.18;;;;;;;8.21;100.00;99813.81;5069180;28;20431;-69
2023/03/24 04:24:18;;;;;;;17.42;4.30;;;;;;;8.22;100.00;99828.72;5068882;28;20024;-70
2023/03/24 04:26:59;;;;;;;17.05;3.72;;;;;;;8.30;100.00;99819.06;5068743;28;20029;-69
2023/03/24 04:29:57;;;;;;;15.60;3.80;;;;;;;8.18;100.00;99811.19;5070115;28;20391;-69
2023/03/24 04:32:34;;;;;;;18.67;3.55;;;;;;;8.23;100.00;99817.31;5069795;28;20033;-69
2023/03/24 04:35:09;;;;;;;16.02;3.50;;;;;;;8.22;100.00;99825.22;5072298;28;20104;-69
2023/03/24 04:37:38;;;;;;;19.15;3.72;;;;;;;8.22;100.00;99830.50;5072251;28;20025;-69
2023/03/24 04:40:10;;;;;;;18.08;3.67;;;;;;;8.09;100.00;99832.28;5072447;28;20035;-70
2023/03/24 04:42:44;;;;;;;17.77;3.40;;;;;;;8.01;100.00;99845.44;5072459;28;20051;-68
2023/03/24 04:45:11;;;;;;;17.25;3.65;;;;;;;7.94;100.00;99843.69;5070748;28;20025;-68
2023/03/24 04:47:42;;;;;;;16.38;3.78;;;;;;;7.99;100.00;99850.72;5072213;28;20033;-69
2023/03/24 04:50:11;;;;;;;17.40;3.97;;;;;;;7.95;100.00;99854.22;5072395;28;20543;-68
2023/03/24 04:52:38;;;;;;;17.38;4.10;;;;;;;7.93;100.00;99852.47;5072189;28;20335;-69
2023/03/24 04:55:23;;;;;;;15.90;4.20;;;;;;;7.87;100.00;99852.47;5072373;28;20379;-69
2023/03/24 04:57:49;;;;;;;19.17;4.53;;;;;;;7.89;100.00;99851.56;5068794;28;20055;-68
2023/03/24 05:00:15;;;;;;;19.58;4.70;;;;;;;7.86;100.00;99848.94;5071086;28;20475;-69
2023/03/24 05:02:40;;;;;;;22.45;5.72;;;;;;;7.84;100.00;99855.97;5070971;28;20436;-69
2023/03/24 05:05:06;;;;;;;19.52;5.20;;;;;;;7.82;100.00;99861.25;5072044;28;20025;-68
2023/03/24 05:07:32;;;;;;;21.08;6.30;;;;;;;7.81;100.00;99862.13;5072207;28;20563;-68
2023/03/24 05:09:58;;;;;;;21.55;5.60;;;;;;;7.83;100.00;99864.75;5071959;28;20103;-69
2023/03/24 05:12:23;;;;;;;21.73;5.90;;;;;;;7.77;100.00;99864.75;5072020;28;20074;-69
2023/03/24 05:14:48;;;;;;;21.85;5.78;;;;;;;7.74;100.00;99875.28;5072210;28;20028;-70
2023/03/24 05:17:14;;;;;;;20.05;5.72;;;;;;;7.71;100.00;99875.28;5071709;28;20457;-69
2023/03/24 05:19:39;;;;;;;18.95;5.68;;;;;;;7.72;100.00;99877.00;5072168;28;20493;-69
2023/03/24 05:22:05;;;;;;;21.80;6.05;;;;;;;7.72;100.00;99882.28;5070979;28;20037;-69
2023/03/24 05:24:30;;;;;;;21.45;5.03;;;;;;;7.72;100.00;99893.69;5071954;28;20036;-69
2023/03/24 05:26:56;;;;;;;19.77;5.30;;;;;;;7.72;100.00;99898.06;5072068;28;20029;-69
2023/03/24 05:29:21;;;;;;;18.95;4.80;;;;;;;7.81;100.00;99898.09;5072016;28;20395;-69
2023/03/24 05:31:46;;;;;;;20.42;4.72;;;;;;;7.84;100.00;99900.72;5071938;28;20028;-69
2023/03/24 05:34:12;;;;;;;20.58;4.57;;;;;;;7.83;100.00;99906.84;5071995;28;20028;-69
2023/03/24 05:36:37;;;;;;;21.15;4.22;;;;;;;7.84;100.00;99898.94;5071684;28;20043;-69
2023/03/24 05:39:02;;;;;;;19.70;4.22;;;;;;;7.85;100.00;99905.09;5053747;28;20107;-69
2023/03/24 05:41:28;;;;;;;19.48;3.95;;;;;;;7.94;100.00;99917.41;5074717;28;20108;-69
2023/03/24 05:43:53;;;;;;;19.48;4.35;;;;;;;7.97;100.00;99910.38;5075194;28;20033;-69
2023/03/24 05:46:19;;;;;;;19.73;4.05;;;;;;;8.04;100.00;99911.25;5075150;28;20078;-69
2023/03/24 05:48:45;;;;;;;19.67;3.85;;;;;;;8.08;100.00;99912.13;5074151;28;20463;-69
2023/03/24 05:51:10;;;;;;;19.42;4.45;;;;;;;8.02;100.00;99923.50;5073874;28;20078;-69
2023/03/24 05:53:36;;;;;;;19.65;4.25;;;;;;;7.99;100.00;99927.03;5075025;28;20032;-69
2023/03/24 05:56:01;;;;;;;22.27;4.55;;;;;;;8.03;100.00;99935.81;5075208;28;20108;-70
2023/03/24 05:58:27;;;;;;;20.70;4.40;;;;;;;8.11;100.00;99931.44;5074814;28;20036;-68
2023/03/24 06:00:53;;;;;;;19.33;4.10;;;;;;;8.05;100.00;99920.88;5075170;28;20024;-69
2023/03/24 06:03:19;;;;;;;18.45;4.10;;;;;;;8.07;100.00;99929.66;5075051;28;20416;-68
2023/03/24 06:05:44;;;;;;;21.02;4.45;;;;;;;8.08;100.00;99927.91;5074965;28;20119;-68
2023/03/24 06:08:11;;;;;;;17.85;3.80;;;;;;;8.06;100.00;99927.91;5074926;28;20116;-69
2023/03/24 06:10:36;;;;;;;21.20;3.80;;;;;;;8.12;100.00;99908.59;5073743;28;20024;-69
2023/03/24 06:13:02;;;;;;;23.17;4.43;;;;;;;8.06;100.00;99922.63;5074704;28;20464;-68
2023/03/24 06:15:27;;;;;;;18.80;3.95;;;;;;;8.10;100.00;99928.81;5074865;28;20479;-69
2023/03/24 06:17:54;;;;;;;19.40;3.60;;;;;;;8.19;100.00;99936.69;5074331;28;20503;-68
2023/03/24 06:20:20;;;;;;;20.95;3.47;;;;;;;8.13;100.00;99937.56;5073235;28;20134;-68
2023/03/24 06:22:46;;;;;;;20.13;3.80;;;;;;;8.09;100.00;99948.97;5074756;28;20440;-68
2023/03/24 06:25:15;;;;;;;17.15;3.60;;;;;;;8.08;100.00;99951.59;5074449;28;20060;-68
2023/03/24 06:27:47;;;;;;;18.00;3.33;;;;;;;8.13;100.00;99952.50;5074451;28;20062;-69
2023/03/24 06:30:16;;;;;;;18.80;3.25;;;;;;;8.25;100.00;99963.00;5074464;28;20036;-69
2023/03/24 06:32:45;;;;;;;21.00;3.47;;;;;;;8.26;100.00;99969.16;5074546;28;20020;-69
2023/03/24 06:35:11;;;;;;;21.20;3.67;;;;;;;8.28;100.00;99957.75;5072944;28;20391;-68
2023/03/24 06:37:36;;;;;;;19.02;3.30;;;;;;;8.29;100.00;99977.06;5074132;28;20029;-68
2023/03/24 06:40:03;;;;;;;19.67;3.60;;;;;;;8.40;100.00;99969.16;5073081;28;20039;-69
2023/03/24 06:42:28;;;;;;;17.20;3.40;;;;;;;8.50;100.00;99977.09;5074035;28;20031;-69
2023/03/24 06:44:54;;;;;;;17.30;3.50;;;;;;;8.67;100.00;99969.16;5074036;28;20472;-68
2023/03/24 06:47:19;;;;;;;20.88;3.95;;;;;;;8.80;100.00;99971.78;5075266;28;20539;-71
2023/03/24 06:49:45;;;;;;;21.83;4.07;;;;;;;8.86;100.00;99964.72;5067551;28;20033;-70
2023/03/24 06:52:10;;;;;;;19.63;3.50;;;;;;;8.93;100.00;99960.31;5072321;28;20029;-69
2023/03/24 06:54:36;;;;;;;20.75;3.30;;;;;;;8.93;100.00;99973.50;5068521;28;20024;-69
2023/03/24 06:57:01;;;;;;;19.50;3.58;;;;;;;8.87;100.00;99958.56;5070378;28;20032;-69
2023/03/24 06:59:27;;;;;;;19.42;3.75;;;;;;;8.91;100.00;99967.31;5070630;28;20439;-71
2023/03/24 07:01:53;;;;;;;19.83;3.72;;;;;;;9.00;100.00;99975.22;5072113;28;20035;-71
2023/03/24 07:04:19;;;;;;;21.23;3.75;;;;;;;9.05;100.00;99977.84;5079363;28;20027;-71
2023/03/24 07:06:44;;;;;;;22.15;3.70;;;;;;;9.08;100.00;99959.38;5068853;28;20445;-71
2023/03/24 07:09:11;;;;;;;18.05;3.33;;;;;;;9.04;100.00;99965.53;5069926;28;20043;-72
2023/03/24 07:11:37;;;;;;;20.63;3.60;;;;;;;9.06;100.00;99975.19;5074583;28;20360;-71
2023/03/24 07:14:02;;;;;;;19.45;3.70;;;;;;;9.11;100.00;99955.84;5074572;28;20037;-71
2023/03/24 07:16:28;;;;;;;21.63;4.07;;;;;;;9.08;100.00;99973.41;5066830;28;20039;-69
2023/03/24 07:18:53;;;;;;;21.10;3.58;;;;;;;9.14;100.00;99976.94;5067681;28;20021;-71
2023/03/24 07:21:19;;;;;;;20.92;3.55;;;;;;;9.19;100.00;99980.44;5062801;28;20037;-70
2023/03/24 07:23:44;;;;;;;20.17;3.47;;;;;;;9.26;100.00;99987.41;5068372;28;20495;-69
2023/03/24 07:26:10;;;;;;;21.75;3.58;;;;;;;9.30;100.00;100005.00;5063393;28;20025;-69
2023/03/24 07:28:35;;;;;;;20.60;3.75;;;;;;;9.35;100.00;100002.34;5066702;28;20064;-69
2023/03/24 07:31:03;;;;;;;20.83;3.63;;;;;;;9.39;100.00;99999.72;5065817;28;20775;-73
2023/03/24 07:33:30;;;;;;;21.17;3.38;;;;;;;9.48;100.00;100004.06;5067014;28;20082;-73
2023/03/24 07:35:56;;;;;;;21.80;3.85;;;;;;;9.55;100.00;100007.53;5075664;28;20028;-74
2023/03/24 07:38:22;;;;;;;19.83;3.60;;;;;;;9.59;100.00;100017.19;5067282;28;20039;-75
2023/03/24 07:40:48;;;;;;;20.83;3.70;;;;;;;9.66;100.00;100012.78;5070291;28;20090;-74
2023/03/24 07:43:13;;;;;;;21.88;3.80;;;;;;;9.72;100.00;100012.72;5067244;28;20032;-72
2023/03/24 07:45:39;;;;;;;21.48;3.65;;;;;;;9.82;100.00;100018.84;5073152;28;20043;-75
2023/03/24 07:48:04;;;;;;;21.45;3.53;;;;;;;9.83;100.00;100010.91;5068129;28;20032;-74
2023/03/24 07:50:31;;;;;;;19.40;3.25;;;;;;;9.75;100.00;100008.31;5069309;28;20041;-73
2023/03/24 07:52:56;;;;;;;19.48;3.30;;;;;;;9.83;100.00;100031.13;5065274;28;20056;-72
2023/03/24 07:55:22;;;;;;;19.88;3.42;;;;;;;9.96;100.00;100043.41;5067985;28;20059;-75
2023/03/24 07:57:48;;;;;;;20.40;3.85;;;;;;;10.12;100.00;100018.66;5071261;28;20048;-73
2023/03/24 08:00:23;;;;;;;18.63;3.50;;;;;;;10.24;100.00;100027.38;5070751;28;20057;-71
2023/03/24 08:02:51;;;;;;;19.95;3.53;;;;;;;10.44;100.00;100030.78;5070049;28;20021;-72
2023/03/24 08:05:18;;;;;;;21.10;3.70;;;;;;;10.60;100.00;100041.19;5067291;28;20039;-74
2023/03/24 08:07:52;;;;;;;20.75;3.40;;;;;;;10.54;100.00;100041.25;5072037;28;20033;-74
2023/03/24 08:10:20;;;;;;;22.40;3.65;;;;;;;10.54;100.00;100035.97;5071470;28;20020;-70
2023/03/24 08:12:46;;;;;;;18.70;3.47;;;;;;;10.53;100.00;100039.50;5069078;28;20032;-72
2023/03/24 08:15:12;;;;;;;19.63;3.63;;;;;;;10.56;100.00;100044.78;5065519;28;20371;-72
2023/03/24 08:17:38;;;;;;;20.08;3.45;;;;;;;10.58;100.00;100038.56;5061249;28;20052;-74
2023/03/24 08:20:08;;;;;;;17.77;3.40;;;;;;;10.48;100.00;100046.59;5067011;28;20109;-71
2023/03/24 08:22:35;;;;;;;18.92;3.40;;;;;;;10.47;100.00;100051.03;5074903;28;20056;-71
2023/03/24 08:25:00;;;;;;;20.10;3.80;;;;;;;10.68;100.00;100060.53;5062913;28;20021;-74
2023/03/24 08:27:26;;;;;;;21.48;3.70;;;;;;;10.85;100.00;100046.28;5067882;28;20101;-73
2023/03/24 08:29:51;;;;;;;18.27;3.42;;;;;;;11.02;100.00;100076.06;5070660;28;20029;-74
2023/03/24 08:32:17;;;;;;;19.40;3.78;;;;;;;11.29;100.00;100053.75;5068427;28;20035;-73
2023/03/24 08:34:42;;;;;;;19.02;3.65;;;;;;;11.61;100.00;100060.44;5068155;28;20028;-72
2023/03/24 08:37:07;;;;;;;18.95;3.47;;;;;;;11.71;100.00;100063.84;5071782;28;20043;-73
2023/03/24 08:39:34;;;;;;;19.55;3.42;;;;;;;11.66;100.00;100057.72;5071801;28;20392;-73
2023/03/24 08:42:00;;;;;;;19.17;3.97;;;;;;;11.58;100.00;100059.63;5070424;28;20089;-73
2023/03/24 08:44:25;;;;;;;18.90;3.30;;;;;;;11.69;100.00;100057.69;5063587;28;20029;-72
2023/03/24 08:46:51;;;;;;;21.02;3.72;;;;;;;11.61;100.00;100071.03;5069481;28;20029;-72
2023/03/24 08:49:16;;;;;;;19.55;3.20;;;;;;;11.56;100.00;100087.84;5063123;28;20035;-71
2023/03/24 08:51:43;;;;;;;19.92;3.78;;;;;;;11.42;100.00;100070.38;5067335;28;20035;-70
2023/03/24 08:54:11;;;;;;;19.13;3.63;;;;;;;11.23;100.00;100079.41;5068898;28;20483;-71
2023/03/24 08:56:37;;;;;;;18.98;3.30;;;;;;;11.31;100.00;100077.53;5067903;28;20083;-70
2023/03/24 08:59:04;;;;;;;18.13;3.67;;;;;;;11.21;100.00;100081.19;5071384;28;20032;-71
2023/03/24 09:01:29;;;;;;;21.00;4.22;;;;;;;11.08;100.00;100075.13;5072988;28;20116;-71
2023/03/24 09:03:56;;;;;;;19.42;3.78;;;;;;;10.76;100.00;100095.72;5072246;28;20124;-70
2023/03/24 09:06:22;;;;;;;20.15;3.67;;;;;;;10.57;100.00;100078.22;5072106;28;20033;-71
2023/03/24 09:08:47;;;;;;;19.65;3.50;;;;;;;10.61;100.00;100085.25;5072062;28;20077;-72
2023/03/24 09:11:16;;;;;;;19.25;3.65;;;;;;;10.77;100.00;100086.88;5071106;28;20071;-71
2023/03/24 09:13:42;;;;;;;18.95;3.42;;;;;;;10.88;100.00;100092.09;5060215;28;20118;-71
2023/03/24 09:16:07;;;;;;;21.75;4.35;;;;;;;11.62;100.00;100079.84;5079224;28;20454;-70
2023/03/24 09:18:32;;;;;;;20.30;3.75;;;;;;;12.48;100.00;100091.06;5064287;28;20140;-71
2023/03/24 09:20:58;;;;;;;19.10;3.78;;;;;;;12.58;100.00;100097.09;5065146;28;20063;-71
2023/03/24 09:23:23;;;;;;;18.50;3.20;;;;;;;12.25;100.00;100086.13;5067256;28;20456;-69
2023/03/24 09:25:50;;;;;;;20.30;3.50;;;;;;;11.88;100.00;100089.22;5074261;28;20123;-71
2023/03/24 09:28:16;;;;;;;18.58;3.50;;;;;;;11.42;100.00;100103.91;5072134;28;20029;-71
2023/03/24 09:30:42;;;;;;;20.30;3.88;;;;;;;10.67;100.00;100111.63;5072276;28;20090;-71
2023/03/24 09:33:07;;;;;;;18.05;3.70;;;;;;;10.08;100.00;100117.25;5081030;28;20436;-69
2023/03/24 09:35:33;;;;;;;20.83;4.05;;;;;;;9.61;100.00;100113.06;5069221;28;20028;-71
2023/03/24 09:37:58;;;;;;;19.40;4.20;;;;;;;9.74;100.00;100111.25;5070874;28;20119;-71
2023/03/24 09:40:34;;;;;;;19.95;3.83;;;;;;;10.06;100.00;100113.75;5072897;28;20048;-71
2023/03/24 09:43:07;;;;;;;20.63;4.20;;;;;;;10.48;100.00;100118.81;5077744;28;20107;-71
2023/03/24 09:45:36;;;;;;;19.63;3.70;;;;;;;10.61;100.00;100107.25;5068692;28;20640;-71
2023/03/24 09:48:03;;;;;;;20.92;4.10;;;;;;;10.75;100.00;100117.75;5072384;28;20368;-71
2023/03/24 09:50:37;;;;;;;19.60;3.85;;;;;;;10.98;100.00;100120.19;5070464;28;20202;-70
2023/03/24 09:53:08;;;;;;;18.88;4.00;;;;;;;10.97;100.00;100110.50;5065428;28;20491;-72
2023/03/24 09:55:38;;;;;;;21.40;4.05;;;;;;;10.88;100.00;100114.97;5075181;28;20509;-72
2023/03/24 09:58:07;;;;;;;19.63;4.03;;;;;;;11.02;100.00;100115.75;5064114;28;20033;-72
2023/03/24 10:00:35;;;;;;;18.13;3.58;;;;;;;11.29;100.00;100117.25;5069288;28;20491;-72
2023/03/24 10:03:30;;;;;;;21.48;3.95;;;;;;;11.36;100.00;100112.78;5073394;28;20020;-71
2023/03/24 10:06:25;;;;;;;21.70;4.32;;;;;;;11.27;100.00;100119.06;5057915;28;20451;-70
2023/03/24 10:09:24;;;;;;;18.30;4.05;;;;;;;11.23;100.00;100116.47;5063739;28;20032;-70
2023/03/24 10:12:35;;;;;;;17.52;3.55;;;;;;;11.29;100.00;100121.69;5071851;28;20028;-71
2023/03/24 10:15:41;;;;;;;20.15;3.70;;;;;;;11.50;100.00;100125.84;5071004;28;20025;-70
2023/03/24 10:18:28;;;;;;;18.13;3.50;;;;;;;11.62;100.00;100130.13;5068908;28;20127;-70
2023/03/24 10:21:18;;;;;;;17.75;3.60;;;;;;;11.65;100.00;100125.69;5069611;28;20414;-70
2023/03/24 10:24:18;;;;;;;19.40;3.60;;;;;;;11.51;100.00;100139.06;5072169;28;20032;-70
2023/03/24 10:27:02;;;;;;;17.70;3.30;;;;;;;11.42;100.00;100131.25;5059105;28;20073;-70
2023/03/24 10:29:33;;;;;;;18.63;3.60;;;;;;;11.48;100.00;100133.81;5073665;28;20468;-70
2023/03/24 10:32:03;;;;;;;17.67;3.70;;;;;;;11.72;100.00;100130.91;5067167;28;20078;-70
2023/03/24 10:34:32;;;;;;;16.90;3.40;;;;;;;12.26;100.00;100138.22;5067887;28;20227;-71
2023/03/24 10:37:01;;;;;;;16.45;3.38;;;;;;;13.06;100.00;100126.34;5073364;28;20036;-71
2023/03/24 10:39:28;;;;;;;17.85;3.17;;;;;;;13.57;100.00;100113.09;5073632;28;20082;-71
2023/03/24 10:41:53;;;;;;;16.27;3.20;;;;;;;13.33;100.00;100113.53;5065282;28;20021;-71
2023/03/24 10:44:20;;;;;;;21.63;3.45;;;;;;;12.83;100.00;100114.38;5073944;28;20039;-71
2023/03/24 10:46:49;;;;;;;17.65;3.20;;;;;;;12.70;100.00;100118.13;5074361;28;20031;-71
2023/03/24 10:49:18;;;;;;;16.40;3.00;;;;;;;12.58;100.00;100128.91;5074302;28;20371;-71
2023/03/24 10:51:50;;;;;;;14.35;2.85;;;;;;;12.46;100.00;100124.69;5074063;28;20028;-70
2023/03/24 10:54:22;;;;;;;20.35;3.53;;;;;;;12.52;100.00;100127.22;5066628;28;20032;-71
2023/03/24 10:56:50;;;;;;;18.77;3.58;;;;;;;12.40;100.00;100109.75;5074248;28;20129;-70
2023/03/24 10:59:26;;;;;;;15.95;3.20;;;;;;;12.45;100.00;100117.63;5073942;28;20020;-69
2023/03/24 11:02:10;;;;;;;17.63;3.42;;;;;;;13.31;100.00;100105.59;5073780;28;20466;-68
2023/03/24 11:04:48;;;;;;;18.20;3.13;;;;;;;14.23;100.00;100118.78;5073637;28;20032;-68
2023/03/24 11:07:19;;;;;;;16.23;3.50;;;;;;;14.92;100.00;100142.91;5070188;28;20027;-69
2023/03/24 11:09:55;;;;;;;17.60;3.22;;;;;;;15.49;90.36;100116.63;5070368;28;20497;-69
2023/03/24 11:12:26;;;;;;;17.83;3.22;;;;;;;14.44;87.47;100121.88;5071098;28;20028;-68
2023/03/24 11:15:01;;;;;;;15.15;3.25;;;;;;;14.06;95.23;100116.50;5073483;28;20043;-68
2023/03/24 11:17:27;;;;;;;16.73;3.40;;;;;;;13.50;96.78;100121.19;5073257;28;20427;-69
2023/03/24 11:19:54;;;;;;;17.35;3.20;;;;;;;14.02;97.53;100121.91;5073882;28;20060;-69
2023/03/24 11:22:20;;;;;;;14.90;3.08;;;;;;;14.08;91.78;100125.34;5073441;28;20111;-68
2023/03/24 11:24:51;;;;;;;17.45;3.20;;;;;;;13.76;87.68;100123.31;5073297;28;20129;-68
2023/03/24 11:27:18;;;;;;;15.55;3.03;;;;;;;13.50;91.31;100114.09;5073439;28;20028;-68
2023/03/24 11:29:48;;;;;;;17.33;3.10;;;;;;;13.38;90.13;100115.22;5072141;28;20074;-69
2023/03/24 11:32:26;;;;;;;17.25;3.30;;;;;;;13.31;88.13;100115.31;5069568;28;20060;-68
2023/03/24 11:35:00;;;;;;;16.08;3.22;;;;;;;12.97;91.23;100124.75;5070460;28;20027;-68